sensor_id;sensor_type;location;lat;lon;timestamp;P1;durP1;ratioP1;P2;durP2;ratioP2
71187;SDS011;58893;53.130;8.158;2022-12-29T00:01:40;3.87;;;3.20;;
71187;SDS011;58893;53.130;8.158;2022-12-29T00:04:06;10.10;;;3.00;;
71187;SDS011;58893;53.130;8.158;2022-12-29T00:06:31;4.23;;;2.93;;
71187;SDS011;58893;53.130;8.158;2022-12-29T00:08:57;2.97;;;2.67;;
71187;SDS011;58893;53.130;8.158;2022-12-29T00:11:24;3.47;;;2.60;;
71187;SDS011;58893;53.130;8.158;2022-12-29T00:13:52;6.00;;;2.80;;
71187;SDS011;58893;53.130;8.158;2022-12-29T00:16:36;5.17;;;2.80;;
71187;SDS011;58893;53.130;8.158;2022-12-29T00:19:04;3.23;;;2.60;;
71187;SDS011;58893;53.130;8.158;2022-12-29T00:21:30;5.40;;;2.60;;
71187;SDS011;58893;53.130;8.158;2022-12-29T00:24:15;5.87;;;3.30;;
71187;SDS011;58893;53.130;8.158;2022-12-29T00:29:41;4.00;;;2.40;;
71187;SDS011;58893;53.130;8.158;2022-12-29T00:32:25;4.20;;;2.90;;
71187;SDS011;58893;53.130;8.158;2022-12-29T00:35:10;3.57;;;3.10;;
71187;SDS011;58893;53.130;8.158;2022-12-29T00:37:40;3.77;;;3.10;;
71187;SDS011;58893;53.130;8.158;2022-12-29T00:40:27;4.07;;;2.87;;
71187;SDS011;58893;53.130;8.158;2022-12-29T00:43:11;5.33;;;3.17;;
71187;SDS011;58893;53.130;8.158;2022-12-29T00:45:55;3.90;;;3.03;;
71187;SDS011;58893;53.130;8.158;2022-12-29T00:48:21;7.50;;;3.53;;
71187;SDS011;58893;53.130;8.158;2022-12-29T00:51:06;4.43;;;3.97;;
71187;SDS011;58893;53.130;8.158;2022-12-29T00:53:32;5.83;;;3.73;;
71187;SDS011;58893;53.130;8.158;2022-12-29T00:55:58;4.97;;;4.23;;
71187;SDS011;58893;53.130;8.158;2022-12-29T00:58:26;7.60;;;4.13;;
71187;SDS011;58893;53.130;8.158;2022-12-29T01:01:00;6.17;;;4.70;;
71187;SDS011;58893;53.130;8.158;2022-12-29T01:03:27;10.47;;;4.17;;
71187;SDS011;58893;53.130;8.158;2022-12-29T01:05:52;7.50;;;4.30;;
71187;SDS011;58893;53.130;8.158;2022-12-29T01:08:18;4.80;;;4.03;;
71187;SDS011;58893;53.130;8.158;2022-12-29T01:10:43;5.30;;;4.03;;
71187;SDS011;58893;53.130;8.158;2022-12-29T01:13:09;5.33;;;3.63;;
71187;SDS011;58893;53.130;8.158;2022-12-29T01:15:34;5.67;;;4.57;;
71187;SDS011;58893;53.130;8.158;2022-12-29T01:18:00;8.33;;;4.50;;
71187;SDS011;58893;53.130;8.158;2022-12-29T01:20:26;5.70;;;3.77;;
71187;SDS011;58893;53.130;8.158;2022-12-29T01:22:53;4.90;;;3.73;;
71187;SDS011;58893;53.130;8.158;2022-12-29T01:25:19;4.63;;;3.30;;
71187;SDS011;58893;53.130;8.158;2022-12-29T01:27:45;3.70;;;3.30;;
71187;SDS011;58893;53.130;8.158;2022-12-29T01:30:10;4.67;;;3.50;;
71187;SDS011;58893;53.130;8.158;2022-12-29T01:32:36;4.67;;;3.50;;
71187;SDS011;58893;53.130;8.158;2022-12-29T01:35:02;5.13;;;3.90;;
71187;SDS011;58893;53.130;8.158;2022-12-29T01:37:28;4.63;;;3.50;;
71187;SDS011;58893;53.130;8.158;2022-12-29T01:39:54;6.60;;;2.90;;
71187;SDS011;58893;53.130;8.158;2022-12-29T01:42:22;4.50;;;2.60;;
71187;SDS011;58893;53.130;8.158;2022-12-29T01:47:22;4.73;;;3.50;;
71187;SDS011;58893;53.130;8.158;2022-12-29T01:49:52;2.83;;;2.30;;
71187;SDS011;58893;53.130;8.158;2022-12-29T01:52:20;4.73;;;2.90;;
71187;SDS011;58893;53.130;8.158;2022-12-29T01:54:49;4.30;;;2.83;;
71187;SDS011;58893;53.130;8.158;2022-12-29T01:57:20;3.40;;;2.37;;
71187;SDS011;58893;53.130;8.158;2022-12-29T01:59:50;10.40;;;3.00;;
71187;SDS011;58893;53.130;8.158;2022-12-29T02:02:33;2.70;;;2.50;;
71187;SDS011;58893;53.130;8.158;2022-12-29T02:04:59;3.30;;;2.30;;
71187;SDS011;58893;53.130;8.158;2022-12-29T02:07:36;2.93;;;2.20;;
71187;SDS011;58893;53.130;8.158;2022-12-29T02:10:03;5.93;;;2.67;;
71187;SDS011;58893;53.130;8.158;2022-12-29T02:12:29;2.93;;;2.37;;
71187;SDS011;58893;53.130;8.158;2022-12-29T02:14:55;2.73;;;2.20;;
71187;SDS011;58893;53.130;8.158;2022-12-29T02:32:07;3.33;;;2.30;;
71187;SDS011;58893;53.130;8.158;2022-12-29T02:37:27;2.40;;;1.90;;
71187;SDS011;58893;53.130;8.158;2022-12-29T02:40:23;2.50;;;2.13;;
71187;SDS011;58893;53.130;8.158;2022-12-29T02:45:36;4.60;;;2.20;;
71187;SDS011;58893;53.130;8.158;2022-12-29T02:50:57;2.37;;;2.03;;
71187;SDS011;58893;53.130;8.158;2022-12-29T02:53:26;1.90;;;1.70;;
71187;SDS011;58893;53.130;8.158;2022-12-29T02:56:11;3.33;;;2.20;;
71187;SDS011;58893;53.130;8.158;2022-12-29T02:58:37;2.30;;;1.47;;
71187;SDS011;58893;53.130;8.158;2022-12-29T03:07:22;2.50;;;2.03;;
71187;SDS011;58893;53.130;8.158;2022-12-29T03:10:25;8.93;;;2.00;;
71187;SDS011;58893;53.130;8.158;2022-12-29T03:16:27;1.90;;;1.50;;
71187;SDS011;58893;53.130;8.158;2022-12-29T03:19:15;1.60;;;1.50;;
71187;SDS011;58893;53.130;8.158;2022-12-29T03:21:55;1.77;;;1.67;;
71187;SDS011;58893;53.130;8.158;2022-12-29T03:24:44;5.20;;;2.10;;
71187;SDS011;58893;53.130;8.158;2022-12-29T03:27:14;2.97;;;2.13;;
71187;SDS011;58893;53.130;8.158;2022-12-29T03:29:48;4.30;;;2.63;;
71187;SDS011;58893;53.130;8.158;2022-12-29T03:32:18;2.63;;;2.43;;
71187;SDS011;58893;53.130;8.158;2022-12-29T03:34:46;6.03;;;2.27;;
71187;SDS011;58893;53.130;8.158;2022-12-29T03:37:14;3.67;;;2.30;;
71187;SDS011;58893;53.130;8.158;2022-12-29T03:39:47;2.50;;;1.80;;
71187;SDS011;58893;53.130;8.158;2022-12-29T03:42:14;2.20;;;1.70;;
71187;SDS011;58893;53.130;8.158;2022-12-29T03:44:44;1.70;;;1.47;;
71187;SDS011;58893;53.130;8.158;2022-12-29T03:47:10;2.03;;;1.60;;
71187;SDS011;58893;53.130;8.158;2022-12-29T03:49:37;1.83;;;1.20;;
71187;SDS011;58893;53.130;8.158;2022-12-29T03:52:03;2.57;;;1.70;;
71187;SDS011;58893;53.130;8.158;2022-12-29T03:54:29;1.90;;;1.70;;
71187;SDS011;58893;53.130;8.158;2022-12-29T03:56:55;1.90;;;1.60;;
71187;SDS011;58893;53.130;8.158;2022-12-29T03:59:21;2.13;;;1.20;;
71187;SDS011;58893;53.130;8.158;2022-12-29T04:01:47;1.83;;;1.63;;
71187;SDS011;58893;53.130;8.158;2022-12-29T04:04:12;1.60;;;1.17;;
71187;SDS011;58893;53.130;8.158;2022-12-29T04:06:38;1.57;;;1.37;;
71187;SDS011;58893;53.130;8.158;2022-12-29T04:09:04;1.93;;;1.47;;
71187;SDS011;58893;53.130;8.158;2022-12-29T04:11:30;3.10;;;1.33;;
71187;SDS011;58893;53.130;8.158;2022-12-29T04:13:56;1.73;;;1.20;;
71187;SDS011;58893;53.130;8.158;2022-12-29T04:16:21;1.50;;;1.40;;
71187;SDS011;58893;53.130;8.158;2022-12-29T04:18:47;1.20;;;1.10;;
71187;SDS011;58893;53.130;8.158;2022-12-29T04:21:12;1.23;;;1.13;;
71187;SDS011;58893;53.130;8.158;2022-12-29T04:23:38;1.80;;;1.30;;
71187;SDS011;58893;53.130;8.158;2022-12-29T04:26:04;1.50;;;1.40;;
71187;SDS011;58893;53.130;8.158;2022-12-29T04:28:32;1.50;;;1.40;;
71187;SDS011;58893;53.130;8.158;2022-12-29T04:30:58;3.50;;;1.70;;
71187;SDS011;58893;53.130;8.158;2022-12-29T04:33:24;1.50;;;1.40;;
71187;SDS011;58893;53.130;8.158;2022-12-29T04:35:50;1.70;;;1.20;;
71187;SDS011;58893;53.130;8.158;2022-12-29T04:38:18;2.00;;;1.27;;
71187;SDS011;58893;53.130;8.158;2022-12-29T04:40:43;1.40;;;1.00;;
71187;SDS011;58893;53.130;8.158;2022-12-29T04:43:09;1.60;;;1.40;;
71187;SDS011;58893;53.130;8.158;2022-12-29T04:45:36;1.40;;;1.20;;
71187;SDS011;58893;53.130;8.158;2022-12-29T04:48:01;1.27;;;1.17;;
71187;SDS011;58893;53.130;8.158;2022-12-29T04:50:27;1.80;;;1.40;;
71187;SDS011;58893;53.130;8.158;2022-12-29T04:52:53;1.50;;;1.07;;
71187;SDS011;58893;53.130;8.158;2022-12-29T04:55:19;1.77;;;1.60;;
71187;SDS011;58893;53.130;8.158;2022-12-29T04:57:45;1.23;;;1.00;;
71187;SDS011;58893;53.130;8.158;2022-12-29T05:00:11;1.90;;;1.10;;
71187;SDS011;58893;53.130;8.158;2022-12-29T05:02:37;9.10;;;1.00;;
71187;SDS011;58893;53.130;8.158;2022-12-29T05:05:03;2.37;;;1.17;;
71187;SDS011;58893;53.130;8.158;2022-12-29T05:07:29;1.93;;;1.20;;
71187;SDS011;58893;53.130;8.158;2022-12-29T05:09:55;4.23;;;1.30;;
71187;SDS011;58893;53.130;8.158;2022-12-29T05:12:20;4.30;;;1.10;;
71187;SDS011;58893;53.130;8.158;2022-12-29T05:14:46;2.30;;;1.07;;
71187;SDS011;58893;53.130;8.158;2022-12-29T05:17:12;8.40;;;1.10;;
71187;SDS011;58893;53.130;8.158;2022-12-29T05:19:37;1.20;;;0.87;;
71187;SDS011;58893;53.130;8.158;2022-12-29T05:22:03;2.40;;;0.80;;
71187;SDS011;58893;53.130;8.158;2022-12-29T05:24:29;3.23;;;1.30;;
71187;SDS011;58893;53.130;8.158;2022-12-29T05:26:55;2.53;;;1.37;;
71187;SDS011;58893;53.130;8.158;2022-12-29T05:29:20;1.87;;;1.00;;
71187;SDS011;58893;53.130;8.158;2022-12-29T05:31:46;1.53;;;0.90;;
71187;SDS011;58893;53.130;8.158;2022-12-29T05:34:12;1.43;;;0.90;;
71187;SDS011;58893;53.130;8.158;2022-12-29T05:36:37;1.47;;;0.80;;
71187;SDS011;58893;53.130;8.158;2022-12-29T05:39:03;2.97;;;1.20;;
71187;SDS011;58893;53.130;8.158;2022-12-29T05:41:29;3.40;;;1.20;;
71187;SDS011;58893;53.130;8.158;2022-12-29T05:43:55;1.53;;;0.90;;
71187;SDS011;58893;53.130;8.158;2022-12-29T05:46:20;1.50;;;1.00;;
71187;SDS011;58893;53.130;8.158;2022-12-29T05:48:46;2.20;;;1.07;;
71187;SDS011;58893;53.130;8.158;2022-12-29T05:51:11;3.03;;;1.00;;
71187;SDS011;58893;53.130;8.158;2022-12-29T05:53:37;1.97;;;0.90;;
71187;SDS011;58893;53.130;8.158;2022-12-29T05:56:03;2.20;;;0.93;;
71187;SDS011;58893;53.130;8.158;2022-12-29T05:58:28;3.63;;;1.10;;
71187;SDS011;58893;53.130;8.158;2022-12-29T06:00:55;0.90;;;0.77;;
71187;SDS011;58893;53.130;8.158;2022-12-29T06:03:20;1.00;;;0.80;;
71187;SDS011;58893;53.130;8.158;2022-12-29T06:05:46;2.70;;;0.80;;
71187;SDS011;58893;53.130;8.158;2022-12-29T06:08:12;1.93;;;0.90;;
71187;SDS011;58893;53.130;8.158;2022-12-29T06:10:37;1.60;;;0.77;;
71187;SDS011;58893;53.130;8.158;2022-12-29T06:13:03;2.00;;;1.20;;
71187;SDS011;58893;53.130;8.158;2022-12-29T06:15:30;1.83;;;1.03;;
71187;SDS011;58893;53.130;8.158;2022-12-29T06:17:56;2.17;;;1.03;;
71187;SDS011;58893;53.130;8.158;2022-12-29T06:20:22;1.83;;;0.90;;
71187;SDS011;58893;53.130;8.158;2022-12-29T06:22:48;3.37;;;1.10;;
71187;SDS011;58893;53.130;8.158;2022-12-29T06:25:14;3.37;;;1.10;;
71187;SDS011;58893;53.130;8.158;2022-12-29T06:27:40;1.30;;;0.80;;
71187;SDS011;58893;53.130;8.158;2022-12-29T06:30:06;2.90;;;1.17;;
71187;SDS011;58893;53.130;8.158;2022-12-29T06:32:32;1.23;;;1.00;;
71187;SDS011;58893;53.130;8.158;2022-12-29T06:34:58;2.13;;;1.20;;
71187;SDS011;58893;53.130;8.158;2022-12-29T06:37:24;2.80;;;0.80;;
71187;SDS011;58893;53.130;8.158;2022-12-29T06:39:49;1.57;;;0.90;;
71187;SDS011;58893;53.130;8.158;2022-12-29T06:42:15;1.27;;;1.00;;
71187;SDS011;58893;53.130;8.158;2022-12-29T06:44:41;1.10;;;1.00;;
71187;SDS011;58893;53.130;8.158;2022-12-29T06:47:06;3.13;;;1.03;;
71187;SDS011;58893;53.130;8.158;2022-12-29T06:49:32;1.60;;;1.13;;
71187;SDS011;58893;53.130;8.158;2022-12-29T06:51:57;3.13;;;1.20;;
71187;SDS011;58893;53.130;8.158;2022-12-29T06:54:25;1.63;;;1.20;;
71187;SDS011;58893;53.130;8.158;2022-12-29T06:56:51;1.70;;;1.20;;
71187;SDS011;58893;53.130;8.158;2022-12-29T06:59:17;5.50;;;1.47;;
71187;SDS011;58893;53.130;8.158;2022-12-29T07:01:43;4.03;;;1.60;;
71187;SDS011;58893;53.130;8.158;2022-12-29T07:04:08;3.33;;;1.33;;
71187;SDS011;58893;53.130;8.158;2022-12-29T07:06:34;3.73;;;1.40;;
71187;SDS011;58893;53.130;8.158;2022-12-29T07:08:59;1.87;;;1.20;;
71187;SDS011;58893;53.130;8.158;2022-12-29T07:11:25;2.47;;;1.10;;
71187;SDS011;58893;53.130;8.158;2022-12-29T07:13:51;4.00;;;1.40;;
71187;SDS011;58893;53.130;8.158;2022-12-29T07:16:16;3.83;;;1.40;;
71187;SDS011;58893;53.130;8.158;2022-12-29T07:18:42;2.60;;;1.30;;
71187;SDS011;58893;53.130;8.158;2022-12-29T07:21:08;9.60;;;1.30;;
71187;SDS011;58893;53.130;8.158;2022-12-29T07:23:34;3.50;;;1.50;;
71187;SDS011;58893;53.130;8.158;2022-12-29T07:26:00;5.30;;;1.10;;
71187;SDS011;58893;53.130;8.158;2022-12-29T07:28:26;6.33;;;1.50;;
71187;SDS011;58893;53.130;8.158;2022-12-29T07:30:51;4.07;;;1.23;;
71187;SDS011;58893;53.130;8.158;2022-12-29T07:33:17;4.63;;;1.20;;
71187;SDS011;58893;53.130;8.158;2022-12-29T07:35:42;4.47;;;1.30;;
71187;SDS011;58893;53.130;8.158;2022-12-29T07:38:08;2.80;;;1.20;;
71187;SDS011;58893;53.130;8.158;2022-12-29T07:40:34;1.47;;;1.20;;
71187;SDS011;58893;53.130;8.158;2022-12-29T07:42:59;2.20;;;1.03;;
71187;SDS011;58893;53.130;8.158;2022-12-29T07:45:25;6.00;;;1.50;;
71187;SDS011;58893;53.130;8.158;2022-12-29T07:47:50;3.60;;;1.20;;
71187;SDS011;58893;53.130;8.158;2022-12-29T07:50:16;2.57;;;1.27;;
71187;SDS011;58893;53.130;8.158;2022-12-29T07:52:42;1.97;;;0.90;;
71187;SDS011;58893;53.130;8.158;2022-12-29T07:55:08;2.90;;;1.30;;
71187;SDS011;58893;53.130;8.158;2022-12-29T07:57:33;3.57;;;1.10;;
71187;SDS011;58893;53.130;8.158;2022-12-29T07:59:59;1.90;;;0.90;;
71187;SDS011;58893;53.130;8.158;2022-12-29T08:02:25;4.67;;;1.20;;
71187;SDS011;58893;53.130;8.158;2022-12-29T08:04:54;2.43;;;1.03;;
71187;SDS011;58893;53.130;8.158;2022-12-29T08:07:20;2.20;;;1.00;;
71187;SDS011;58893;53.130;8.158;2022-12-29T08:09:46;3.90;;;1.20;;
71187;SDS011;58893;53.130;8.158;2022-12-29T08:12:11;4.27;;;1.07;;
71187;SDS011;58893;53.130;8.158;2022-12-29T08:14:37;3.40;;;1.40;;
71187;SDS011;58893;53.130;8.158;2022-12-29T08:17:03;6.63;;;1.43;;
71187;SDS011;58893;53.130;8.158;2022-12-29T08:19:28;4.20;;;0.93;;
71187;SDS011;58893;53.130;8.158;2022-12-29T08:21:54;13.47;;;1.50;;
71187;SDS011;58893;53.130;8.158;2022-12-29T08:24:19;6.73;;;1.80;;
71187;SDS011;58893;53.130;8.158;2022-12-29T08:26:45;7.03;;;1.77;;
71187;SDS011;58893;53.130;8.158;2022-12-29T08:29:11;12.57;;;1.40;;
71187;SDS011;58893;53.130;8.158;2022-12-29T08:31:36;8.73;;;1.33;;
71187;SDS011;58893;53.130;8.158;2022-12-29T08:34:02;5.60;;;1.43;;
71187;SDS011;58893;53.130;8.158;2022-12-29T08:36:28;18.30;;;1.57;;
71187;SDS011;58893;53.130;8.158;2022-12-29T08:38:55;2.13;;;0.93;;
71187;SDS011;58893;53.130;8.158;2022-12-29T08:41:21;5.50;;;1.40;;
71187;SDS011;58893;53.130;8.158;2022-12-29T08:43:47;3.47;;;1.20;;
71187;SDS011;58893;53.130;8.158;2022-12-29T08:46:14;15.33;;;2.80;;
71187;SDS011;58893;53.130;8.158;2022-12-29T08:48:39;5.77;;;1.33;;
71187;SDS011;58893;53.130;8.158;2022-12-29T08:51:05;3.80;;;1.47;;
71187;SDS011;58893;53.130;8.158;2022-12-29T08:53:31;5.73;;;1.47;;
71187;SDS011;58893;53.130;8.158;2022-12-29T08:55:57;1.40;;;1.00;;
71187;SDS011;58893;53.130;8.158;2022-12-29T08:58:24;3.07;;;1.20;;
71187;SDS011;58893;53.130;8.158;2022-12-29T09:00:54;2.43;;;1.27;;
71187;SDS011;58893;53.130;8.158;2022-12-29T09:03:23;4.90;;;1.30;;
71187;SDS011;58893;53.130;8.158;2022-12-29T09:05:50;2.30;;;1.03;;
71187;SDS011;58893;53.130;8.158;2022-12-29T09:08:17;6.00;;;1.00;;
71187;SDS011;58893;53.130;8.158;2022-12-29T09:10:43;2.00;;;1.13;;
71187;SDS011;58893;53.130;8.158;2022-12-29T09:13:10;7.30;;;0.90;;
71187;SDS011;58893;53.130;8.158;2022-12-29T09:15:37;4.70;;;1.27;;
71187;SDS011;58893;53.130;8.158;2022-12-29T09:18:03;4.40;;;1.10;;
71187;SDS011;58893;53.130;8.158;2022-12-29T09:20:29;2.40;;;1.00;;
71187;SDS011;58893;53.130;8.158;2022-12-29T09:22:55;4.13;;;1.23;;
71187;SDS011;58893;53.130;8.158;2022-12-29T09:25:20;4.53;;;1.37;;
71187;SDS011;58893;53.130;8.158;2022-12-29T09:27:49;9.47;;;1.60;;
71187;SDS011;58893;53.130;8.158;2022-12-29T09:30:18;9.00;;;1.90;;
71187;SDS011;58893;53.130;8.158;2022-12-29T09:32:45;5.17;;;1.00;;
71187;SDS011;58893;53.130;8.158;2022-12-29T09:35:11;11.53;;;1.67;;
71187;SDS011;58893;53.130;8.158;2022-12-29T09:37:38;13.00;;;1.30;;
71187;SDS011;58893;53.130;8.158;2022-12-29T09:40:04;4.57;;;1.30;;
71187;SDS011;58893;53.130;8.158;2022-12-29T09:45:44;3.97;;;1.10;;
71187;SDS011;58893;53.130;8.158;2022-12-29T09:48:22;3.30;;;1.27;;
71187;SDS011;58893;53.130;8.158;2022-12-29T09:50:52;2.47;;;1.13;;
71187;SDS011;58893;53.130;8.158;2022-12-29T09:55:54;4.37;;;1.20;;
71187;SDS011;58893;53.130;8.158;2022-12-29T10:03:49;4.07;;;1.13;;
71187;SDS011;58893;53.130;8.158;2022-12-29T10:20:33;7.30;;;1.13;;
71187;SDS011;58893;53.130;8.158;2022-12-29T10:25:37;3.10;;;0.80;;
71187;SDS011;58893;53.130;8.158;2022-12-29T10:28:06;4.63;;;2.03;;
71187;SDS011;58893;53.130;8.158;2022-12-29T10:30:50;2.30;;;1.07;;
71187;SDS011;58893;53.130;8.158;2022-12-29T10:33:24;4.33;;;1.10;;
71187;SDS011;58893;53.130;8.158;2022-12-29T10:35:56;7.43;;;1.30;;
71187;SDS011;58893;53.130;8.158;2022-12-29T10:38:32;5.30;;;1.10;;
71187;SDS011;58893;53.130;8.158;2022-12-29T10:43:45;2.50;;;0.87;;
71187;SDS011;58893;53.130;8.158;2022-12-29T10:46:13;2.03;;;1.03;;
71187;SDS011;58893;53.130;8.158;2022-12-29T10:48:43;1.73;;;0.97;;
71187;SDS011;58893;53.130;8.158;2022-12-29T10:51:11;2.20;;;1.00;;
71187;SDS011;58893;53.130;8.158;2022-12-29T10:54:03;3.77;;;0.90;;
71187;SDS011;58893;53.130;8.158;2022-12-29T10:59:51;4.77;;;1.03;;
71187;SDS011;58893;53.130;8.158;2022-12-29T11:07:05;5.40;;;1.13;;
71187;SDS011;58893;53.130;8.158;2022-12-29T11:09:33;4.10;;;1.07;;
71187;SDS011;58893;53.130;8.158;2022-12-29T11:12:15;10.57;;;1.47;;
71187;SDS011;58893;53.130;8.158;2022-12-29T11:14:45;12.10;;;1.70;;
71187;SDS011;58893;53.130;8.158;2022-12-29T11:17:14;6.37;;;1.50;;
71187;SDS011;58893;53.130;8.158;2022-12-29T11:19:42;3.67;;;1.20;;
71187;SDS011;58893;53.130;8.158;2022-12-29T11:22:19;5.80;;;1.30;;
71187;SDS011;58893;53.130;8.158;2022-12-29T11:24:49;5.50;;;1.60;;
71187;SDS011;58893;53.130;8.158;2022-12-29T11:29:49;5.70;;;1.20;;
71187;SDS011;58893;53.130;8.158;2022-12-29T11:32:20;4.20;;;1.10;;
71187;SDS011;58893;53.130;8.158;2022-12-29T11:34:47;7.30;;;1.10;;
71187;SDS011;58893;53.130;8.158;2022-12-29T11:39:49;2.27;;;1.10;;
71187;SDS011;58893;53.130;8.158;2022-12-29T11:42:23;4.17;;;1.10;;
71187;SDS011;58893;53.130;8.158;2022-12-29T11:45:21;7.73;;;1.33;;
71187;SDS011;58893;53.130;8.158;2022-12-29T11:47:52;3.87;;;1.10;;
71187;SDS011;58893;53.130;8.158;2022-12-29T11:50:25;5.47;;;1.40;;
71187;SDS011;58893;53.130;8.158;2022-12-29T11:53:00;4.03;;;1.60;;
71187;SDS011;58893;53.130;8.158;2022-12-29T11:55:30;3.63;;;1.33;;
71187;SDS011;58893;53.130;8.158;2022-12-29T11:57:57;7.30;;;1.80;;
71187;SDS011;58893;53.130;8.158;2022-12-29T12:00:26;4.87;;;2.20;;
71187;SDS011;58893;53.130;8.158;2022-12-29T12:02:59;6.40;;;1.50;;
71187;SDS011;58893;53.130;8.158;2022-12-29T12:08:09;4.13;;;0.97;;
71187;SDS011;58893;53.130;8.158;2022-12-29T12:10:43;7.23;;;1.40;;
71187;SDS011;58893;53.130;8.158;2022-12-29T12:13:20;6.50;;;1.20;;
71187;SDS011;58893;53.130;8.158;2022-12-29T12:15:59;3.83;;;1.40;;
71187;SDS011;58893;53.130;8.158;2022-12-29T12:21:25;4.13;;;1.07;;
71187;SDS011;58893;53.130;8.158;2022-12-29T12:29:28;4.17;;;1.50;;
71187;SDS011;58893;53.130;8.158;2022-12-29T12:32:03;5.67;;;1.03;;
71187;SDS011;58893;53.130;8.158;2022-12-29T12:34:42;2.40;;;1.23;;
71187;SDS011;58893;53.130;8.158;2022-12-29T12:42:47;8.73;;;1.10;;
71187;SDS011;58893;53.130;8.158;2022-12-29T13:18:58;5.87;;;1.33;;
71187;SDS011;58893;53.130;8.158;2022-12-29T13:24:16;10.90;;;1.80;;
71187;SDS011;58893;53.130;8.158;2022-12-29T13:30:01;6.03;;;1.30;;
71187;SDS011;58893;53.130;8.158;2022-12-29T13:33:19;5.80;;;1.70;;
71187;SDS011;58893;53.130;8.158;2022-12-29T13:38:44;5.17;;;1.37;;
71187;SDS011;58893;53.130;8.158;2022-12-29T13:41:26;3.27;;;1.43;;
71187;SDS011;58893;53.130;8.158;2022-12-29T13:43:57;5.80;;;1.90;;
71187;SDS011;58893;53.130;8.158;2022-12-29T13:46:27;4.00;;;1.27;;
71187;SDS011;58893;53.130;8.158;2022-12-29T13:49:04;7.63;;;1.93;;
71187;SDS011;58893;53.130;8.158;2022-12-29T13:51:33;11.73;;;1.63;;
71187;SDS011;58893;53.130;8.158;2022-12-29T13:56:55;3.77;;;1.10;;
71187;SDS011;58893;53.130;8.158;2022-12-29T14:04:54;7.50;;;1.40;;
71187;SDS011;58893;53.130;8.158;2022-12-29T14:07:22;5.97;;;2.07;;
71187;SDS011;58893;53.130;8.158;2022-12-29T14:09:50;3.77;;;1.63;;
71187;SDS011;58893;53.130;8.158;2022-12-29T14:15:20;7.53;;;0.97;;
71187;SDS011;58893;53.130;8.158;2022-12-29T14:28:26;4.60;;;1.73;;
71187;SDS011;58893;53.130;8.158;2022-12-29T14:30:54;11.73;;;1.63;;
71187;SDS011;58893;53.130;8.158;2022-12-29T14:33:21;9.30;;;2.17;;
71187;SDS011;58893;53.130;8.158;2022-12-29T14:35:50;5.23;;;1.63;;
71187;SDS011;58893;53.130;8.158;2022-12-29T14:38:21;11.27;;;2.17;;
71187;SDS011;58893;53.130;8.158;2022-12-29T14:40:49;7.67;;;1.33;;
71187;SDS011;58893;53.130;8.158;2022-12-29T14:43:19;6.73;;;1.27;;
71187;SDS011;58893;53.130;8.158;2022-12-29T14:45:54;2.87;;;1.00;;
71187;SDS011;58893;53.130;8.158;2022-12-29T14:48:30;3.90;;;1.23;;
71187;SDS011;58893;53.130;8.158;2022-12-29T14:51:02;4.73;;;1.37;;
71187;SDS011;58893;53.130;8.158;2022-12-29T14:53:48;20.07;;;2.37;;
71187;SDS011;58893;53.130;8.158;2022-12-29T14:56:16;4.80;;;1.80;;
71187;SDS011;58893;53.130;8.158;2022-12-29T14:58:52;5.30;;;1.03;;
71187;SDS011;58893;53.130;8.158;2022-12-29T15:03:59;3.47;;;1.10;;
71187;SDS011;58893;53.130;8.158;2022-12-29T15:06:29;5.37;;;1.37;;
71187;SDS011;58893;53.130;8.158;2022-12-29T15:09:00;14.63;;;1.70;;
71187;SDS011;58893;53.130;8.158;2022-12-29T15:14:01;8.73;;;1.73;;
71187;SDS011;58893;53.130;8.158;2022-12-29T15:16:32;12.93;;;2.07;;
71187;SDS011;58893;53.130;8.158;2022-12-29T15:19:00;3.07;;;1.53;;
71187;SDS011;58893;53.130;8.158;2022-12-29T15:21:29;12.20;;;1.60;;
71187;SDS011;58893;53.130;8.158;2022-12-29T15:23:57;10.57;;;1.40;;
71187;SDS011;58893;53.130;8.158;2022-12-29T15:26:23;5.50;;;1.70;;
71187;SDS011;58893;53.130;8.158;2022-12-29T15:29:01;10.17;;;1.70;;
71187;SDS011;58893;53.130;8.158;2022-12-29T15:31:27;3.30;;;1.27;;
71187;SDS011;58893;53.130;8.158;2022-12-29T15:33:54;11.53;;;1.73;;
71187;SDS011;58893;53.130;8.158;2022-12-29T15:36:27;7.13;;;1.30;;
71187;SDS011;58893;53.130;8.158;2022-12-29T15:38:53;6.10;;;2.37;;
71187;SDS011;58893;53.130;8.158;2022-12-29T15:41:25;9.37;;;1.80;;
71187;SDS011;58893;53.130;8.158;2022-12-29T15:46:30;5.83;;;1.57;;
71187;SDS011;58893;53.130;8.158;2022-12-29T15:48:56;13.30;;;1.67;;
71187;SDS011;58893;53.130;8.158;2022-12-29T15:51:25;12.50;;;1.97;;
71187;SDS011;58893;53.130;8.158;2022-12-29T15:53:55;2.80;;;1.07;;
71187;SDS011;58893;53.130;8.158;2022-12-29T15:56:22;10.33;;;2.20;;
71187;SDS011;58893;53.130;8.158;2022-12-29T15:58:49;8.33;;;1.97;;
71187;SDS011;58893;53.130;8.158;2022-12-29T16:01:34;18.53;;;2.00;;
71187;SDS011;58893;53.130;8.158;2022-12-29T16:04:05;6.33;;;1.33;;
71187;SDS011;58893;53.130;8.158;2022-12-29T16:06:44;7.80;;;1.80;;
71187;SDS011;58893;53.130;8.158;2022-12-29T16:09:28;10.57;;;2.27;;
71187;SDS011;58893;53.130;8.158;2022-12-29T16:11:59;3.60;;;1.40;;
71187;SDS011;58893;53.130;8.158;2022-12-29T16:14:38;11.03;;;1.87;;
71187;SDS011;58893;53.130;8.158;2022-12-29T16:17:10;14.03;;;1.87;;
71187;SDS011;58893;53.130;8.158;2022-12-29T16:19:40;8.40;;;1.60;;
71187;SDS011;58893;53.130;8.158;2022-12-29T16:22:25;7.50;;;1.83;;
71187;SDS011;58893;53.130;8.158;2022-12-29T16:25:19;5.43;;;1.73;;
71187;SDS011;58893;53.130;8.158;2022-12-29T16:27:49;7.97;;;1.70;;
71187;SDS011;58893;53.130;8.158;2022-12-29T16:30:27;9.53;;;2.20;;
71187;SDS011;58893;53.130;8.158;2022-12-29T16:32:55;5.40;;;2.10;;
71187;SDS011;58893;53.130;8.158;2022-12-29T16:35:23;8.23;;;2.40;;
71187;SDS011;58893;53.130;8.158;2022-12-29T16:38:37;5.03;;;2.20;;
71187;SDS011;58893;53.130;8.158;2022-12-29T16:40:51;9.87;;;1.40;;
71187;SDS011;58893;53.130;8.158;2022-12-29T16:43:31;6.80;;;1.60;;
71187;SDS011;58893;53.130;8.158;2022-12-29T16:51:02;8.10;;;2.20;;
71187;SDS011;58893;53.130;8.158;2022-12-29T16:53:38;6.87;;;2.57;;
71187;SDS011;58893;53.130;8.158;2022-12-29T16:56:17;10.53;;;1.93;;
71187;SDS011;58893;53.130;8.158;2022-12-29T16:58:48;14.73;;;2.53;;
71187;SDS011;58893;53.130;8.158;2022-12-29T17:01:17;13.30;;;3.20;;
71187;SDS011;58893;53.130;8.158;2022-12-29T17:03:51;7.20;;;2.10;;
71187;SDS011;58893;53.130;8.158;2022-12-29T17:06:22;5.03;;;1.83;;
71187;SDS011;58893;53.130;8.158;2022-12-29T17:08:48;12.17;;;3.30;;
71187;SDS011;58893;53.130;8.158;2022-12-29T17:11:48;9.10;;;2.50;;
71187;SDS011;58893;53.130;8.158;2022-12-29T17:16:53;5.27;;;2.20;;
71187;SDS011;58893;53.130;8.158;2022-12-29T17:19:19;12.43;;;3.17;;
71187;SDS011;58893;53.130;8.158;2022-12-29T17:21:49;13.80;;;2.27;;
71187;SDS011;58893;53.130;8.158;2022-12-29T17:24:16;8.90;;;2.00;;
71187;SDS011;58893;53.130;8.158;2022-12-29T17:26:47;5.97;;;1.93;;
71187;SDS011;58893;53.130;8.158;2022-12-29T17:29:48;12.20;;;2.40;;
71187;SDS011;58893;53.130;8.158;2022-12-29T17:32:09;6.10;;;2.47;;
71187;SDS011;58893;53.130;8.158;2022-12-29T17:34:39;12.63;;;3.03;;
71187;SDS011;58893;53.130;8.158;2022-12-29T17:40:07;6.97;;;2.27;;
71187;SDS011;58893;53.130;8.158;2022-12-29T17:42:39;6.13;;;2.23;;
71187;SDS011;58893;53.130;8.158;2022-12-29T17:45:12;20.37;;;2.80;;
71187;SDS011;58893;53.130;8.158;2022-12-29T17:47:45;6.03;;;2.00;;
71187;SDS011;58893;53.130;8.158;2022-12-29T17:50:15;20.60;;;2.63;;
71187;SDS011;58893;53.130;8.158;2022-12-29T17:52:45;7.20;;;2.77;;
71187;SDS011;58893;53.130;8.158;2022-12-29T17:55:16;5.73;;;2.00;;
71187;SDS011;58893;53.130;8.158;2022-12-29T17:57:43;4.87;;;2.40;;
71187;SDS011;58893;53.130;8.158;2022-12-29T18:00:16;8.53;;;2.70;;
71187;SDS011;58893;53.130;8.158;2022-12-29T18:02:44;9.47;;;2.23;;